sensor_id;sensor_type;location;lat;lon;timestamp;temperature;humidity
9425;DHT22;17139;52.140;11.636;2023-04-03T00:00:44;0.00;55.20
9425;DHT22;17139;52.140;11.636;2023-04-03T00:03:12;-0.10;55.10
9425;DHT22;17139;52.140;11.636;2023-04-03T00:05:39;-0.10;55.10
9425;DHT22;17139;52.140;11.636;2023-04-03T00:08:07;0.20;55.10
9425;DHT22;17139;52.140;11.636;2023-04-03T00:10:35;0.20;54.50
9425;DHT22;17139;52.140;11.636;2023-04-03T00:13:05;0.10;54.70
9425;DHT22;17139;52.140;11.636;2023-04-03T00:15:33;0.00;54.80
9425;DHT22;17139;52.140;11.636;2023-04-03T00:18:01;-0.10;54.80
9425;DHT22;17139;52.140;11.636;2023-04-03T00:20:28;-0.10;55.00
9425;DHT22;17139;52.140;11.636;2023-04-03T00:22:56;-0.10;55.10
9425;DHT22;17139;52.140;11.636;2023-04-03T00:25:23;-0.20;55.10
9425;DHT22;17139;52.140;11.636;2023-04-03T00:27:51;-0.20;55.20
9425;DHT22;17139;52.140;11.636;2023-04-03T00:30:20;-0.20;55.20
9425;DHT22;17139;52.140;11.636;2023-04-03T00:32:48;-0.30;55.10
9425;DHT22;17139;52.140;11.636;2023-04-03T00:35:16;-0.30;55.80
9425;DHT22;17139;52.140;11.636;2023-04-03T00:37:44;-0.30;55.10
9425;DHT22;17139;52.140;11.636;2023-04-03T00:40:13;-0.30;55.00
9425;DHT22;17139;52.140;11.636;2023-04-03T00:42:43;-0.10;55.10
9425;DHT22;17139;52.140;11.636;2023-04-03T00:45:34;-0.10;54.70
9425;DHT22;17139;52.140;11.636;2023-04-03T00:48:04;-0.20;54.70
9425;DHT22;17139;52.140;11.636;2023-04-03T00:50:34;-0.30;55.00
9425;DHT22;17139;52.140;11.636;2023-04-03T00:53:03;-0.40;54.90
9425;DHT22;17139;52.140;11.636;2023-04-03T00:55:32;-0.40;55.10
9425;DHT22;17139;52.140;11.636;2023-04-03T00:58:02;-0.40;55.20
9425;DHT22;17139;52.140;11.636;2023-04-03T01:00:31;-0.40;55.20
9425;DHT22;17139;52.140;11.636;2023-04-03T01:02:58;-0.50;55.10
9425;DHT22;17139;52.140;11.636;2023-04-03T01:05:26;-0.50;55.10
9425;DHT22;17139;52.140;11.636;2023-04-03T01:07:53;-0.50;55.10
9425;DHT22;17139;52.140;11.636;2023-04-03T01:10:21;-0.50;55.10
9425;DHT22;17139;52.140;11.636;2023-04-03T01:12:49;-0.50;55.10
9425;DHT22;17139;52.140;11.636;2023-04-03T01:15:22;0.10;54.90
9425;DHT22;17139;52.140;11.636;2023-04-03T01:17:53;0.80;53.70
9425;DHT22;17139;52.140;11.636;2023-04-03T01:20:49;0.40;53.40
9425;DHT22;17139;52.140;11.636;2023-04-03T01:23:28;0.10;54.00
9425;DHT22;17139;52.140;11.636;2023-04-03T01:25:57;-0.20;54.60
9425;DHT22;17139;52.140;11.636;2023-04-03T01:28:27;-0.40;54.90
9425;DHT22;17139;52.140;11.636;2023-04-03T01:31:02;-0.50;55.00
9425;DHT22;17139;52.140;11.636;2023-04-03T01:33:34;-0.50;55.20
9425;DHT22;17139;52.140;11.636;2023-04-03T01:36:02;-0.60;55.10
9425;DHT22;17139;52.140;11.636;2023-04-03T01:38:30;-0.60;55.20
9425;DHT22;17139;52.140;11.636;2023-04-03T01:40:57;-0.70;55.70
9425;DHT22;17139;52.140;11.636;2023-04-03T01:43:25;-0.70;55.00
9425;DHT22;17139;52.140;11.636;2023-04-03T01:45:52;-0.70;55.10
9425;DHT22;17139;52.140;11.636;2023-04-03T01:48:20;-0.80;55.10
9425;DHT22;17139;52.140;11.636;2023-04-03T01:50:49;-0.80;55.20
9425;DHT22;17139;52.140;11.636;2023-04-03T01:53:17;-0.80;55.20
9425;DHT22;17139;52.140;11.636;2023-04-03T01:55:44;-0.80;55.20
9425;DHT22;17139;52.140;11.636;2023-04-03T01:58:11;-0.90;55.00
9425;DHT22;17139;52.140;11.636;2023-04-03T02:00:39;-0.90;55.00
9425;DHT22;17139;52.140;11.636;2023-04-03T02:03:06;-0.90;55.10
9425;DHT22;17139;52.140;11.636;2023-04-03T02:05:34;-0.90;55.10
9425;DHT22;17139;52.140;11.636;2023-04-03T02:08:03;-0.90;55.10
9425;DHT22;17139;52.140;11.636;2023-04-03T02:10:30;-0.90;55.20
9425;DHT22;17139;52.140;11.636;2023-04-03T02:12:58;-1.00;55.10
9425;DHT22;17139;52.140;11.636;2023-04-03T02:15:25;-0.90;54.90
9425;DHT22;17139;52.140;11.636;2023-04-03T02:17:53;-1.00;55.00
9425;DHT22;17139;52.140;11.636;2023-04-03T02:20:20;-1.00;55.00
9425;DHT22;17139;52.140;11.636;2023-04-03T02:22:48;-1.00;55.00
9425;DHT22;17139;52.140;11.636;2023-04-03T02:25:17;-1.00;54.80
9425;DHT22;17139;52.140;11.636;2023-04-03T02:27:44;-1.00;54.90
9425;DHT22;17139;52.140;11.636;2023-04-03T02:30:12;-1.10;54.90
9425;DHT22;17139;52.140;11.636;2023-04-03T02:32:40;-1.10;55.00
9425;DHT22;17139;52.140;11.636;2023-04-03T02:35:09;-1.10;55.00
9425;DHT22;17139;52.140;11.636;2023-04-03T02:37:36;-1.10;55.00
9425;DHT22;17139;52.140;11.636;2023-04-03T02:40:05;-1.10;55.00
9425;DHT22;17139;52.140;11.636;2023-04-03T02:42:34;-1.10;55.00
9425;DHT22;17139;52.140;11.636;2023-04-03T02:45:02;-1.20;55.00
9425;DHT22;17139;52.140;11.636;2023-04-03T02:47:29;-1.20;55.00
9425;DHT22;17139;52.140;11.636;2023-04-03T02:49:57;-1.20;55.00
9425;DHT22;17139;52.140;11.636;2023-04-03T02:52:24;-1.20;55.00
9425;DHT22;17139;52.140;11.636;2023-04-03T02:54:51;-1.20;55.00
9425;DHT22;17139;52.140;11.636;2023-04-03T02:57:18;-1.20;55.00
9425;DHT22;17139;52.140;11.636;2023-04-03T02:59:48;-1.20;55.00
9425;DHT22;17139;52.140;11.636;2023-04-03T03:02:15;-0.60;54.50
9425;DHT22;17139;52.140;11.636;2023-04-03T03:04:42;-0.70;53.80
9425;DHT22;17139;52.140;11.636;2023-04-03T03:07:09;-0.90;54.00
9425;DHT22;17139;52.140;11.636;2023-04-03T03:09:37;-1.00;54.40
9425;DHT22;17139;52.140;11.636;2023-04-03T03:12:04;-1.10;54.60
9425;DHT22;17139;52.140;11.636;2023-04-03T03:14:32;-1.20;54.70
9425;DHT22;17139;52.140;11.636;2023-04-03T03:17:00;-1.20;54.80
9425;DHT22;17139;52.140;11.636;2023-04-03T03:19:28;-1.30;54.90
9425;DHT22;17139;52.140;11.636;2023-04-03T03:21:55;-1.30;54.90
9425;DHT22;17139;52.140;11.636;2023-04-03T03:24:22;-1.30;54.90
9425;DHT22;17139;52.140;11.636;2023-04-03T03:26:50;-1.30;54.90
9425;DHT22;17139;52.140;11.636;2023-04-03T03:29:17;-1.40;54.80
9425;DHT22;17139;52.140;11.636;2023-04-03T03:31:45;-1.20;55.00
9425;DHT22;17139;52.140;11.636;2023-04-03T03:34:14;-1.20;54.50
9425;DHT22;17139;52.140;11.636;2023-04-03T03:36:41;-1.30;54.60
9425;DHT22;17139;52.140;11.636;2023-04-03T03:39:09;-1.30;54.80
9425;DHT22;17139;52.140;11.636;2023-04-03T03:41:36;-0.90;54.80
9425;DHT22;17139;52.140;11.636;2023-04-03T03:44:04;-1.00;54.00
9425;DHT22;17139;52.140;11.636;2023-04-03T03:46:31;-1.10;54.30
9425;DHT22;17139;52.140;11.636;2023-04-03T03:48:58;-1.20;54.40
9425;DHT22;17139;52.140;11.636;2023-04-03T03:51:27;-1.30;54.60
9425;DHT22;17139;52.140;11.636;2023-04-03T03:54:00;-1.40;54.80
9425;DHT22;17139;52.140;11.636;2023-04-03T03:56:28;-1.40;54.80
9425;DHT22;17139;52.140;11.636;2023-04-03T03:58:55;-1.50;55.10
9425;DHT22;17139;52.140;11.636;2023-04-03T04:01:23;-1.50;54.90
9425;DHT22;17139;52.140;11.636;2023-04-03T04:03:51;-1.50;54.90
9425;DHT22;17139;52.140;11.636;2023-04-03T04:06:19;-1.50;54.90
9425;DHT22;17139;52.140;11.636;2023-04-03T04:08:48;-1.60;54.80
9425;DHT22;17139;52.140;11.636;2023-04-03T04:11:16;-1.60;54.90
9425;DHT22;17139;52.140;11.636;2023-04-03T04:13:43;-1.60;54.80
9425;DHT22;17139;52.140;11.636;2023-04-03T04:16:11;-1.60;54.90
9425;DHT22;17139;52.140;11.636;2023-04-03T04:18:38;-1.00;54.60
9425;DHT22;17139;52.140;11.636;2023-04-03T04:21:05;-0.30;53.40
9425;DHT22;17139;52.140;11.636;2023-04-03T04:23:33;-0.60;52.90
9425;DHT22;17139;52.140;11.636;2023-04-03T04:26:01;-0.90;53.40
9425;DHT22;17139;52.140;11.636;2023-04-03T04:28:28;-1.20;53.80
9425;DHT22;17139;52.140;11.636;2023-04-03T04:30:56;-1.30;54.20
9425;DHT22;17139;52.140;11.636;2023-04-03T04:33:23;-1.40;54.40
9425;DHT22;17139;52.140;11.636;2023-04-03T04:35:51;-1.50;54.50
9425;DHT22;17139;52.140;11.636;2023-04-03T04:38:18;-1.60;54.60
9425;DHT22;17139;52.140;11.636;2023-04-03T04:40:47;-1.60;54.60
9425;DHT22;17139;52.140;11.636;2023-04-03T04:43:16;-1.60;54.60
9425;DHT22;17139;52.140;11.636;2023-04-03T04:45:43;-1.60;54.60
9425;DHT22;17139;52.140;11.636;2023-04-03T04:48:11;-1.70;54.60
9425;DHT22;17139;52.140;11.636;2023-04-03T04:50:38;-1.70;54.60
9425;DHT22;17139;52.140;11.636;2023-04-03T04:53:06;-1.00;54.40
9425;DHT22;17139;52.140;11.636;2023-04-03T04:55:34;-1.10;53.60
9425;DHT22;17139;52.140;11.636;2023-04-03T04:58:01;-1.30;53.80
9425;DHT22;17139;52.140;11.636;2023-04-03T05:00:30;-1.10;54.10
9425;DHT22;17139;52.140;11.636;2023-04-03T05:02:57;-1.20;53.70
9425;DHT22;17139;52.140;11.636;2023-04-03T05:05:25;-1.30;53.90
9425;DHT22;17139;52.140;11.636;2023-04-03T05:07:52;-1.40;54.10
9425;DHT22;17139;52.140;11.636;2023-04-03T05:10:20;-1.40;54.30
9425;DHT22;17139;52.140;11.636;2023-04-03T05:12:47;-1.50;54.30
9425;DHT22;17139;52.140;11.636;2023-04-03T05:15:15;-1.50;54.40
9425;DHT22;17139;52.140;11.636;2023-04-03T05:17:43;-1.50;54.50
9425;DHT22;17139;52.140;11.636;2023-04-03T05:20:11;-1.50;54.60
9425;DHT22;17139;52.140;11.636;2023-04-03T05:22:38;-1.50;54.60
9425;DHT22;17139;52.140;11.636;2023-04-03T05:25:06;-1.50;54.60
9425;DHT22;17139;52.140;11.636;2023-04-03T05:27:34;-1.50;54.50
9425;DHT22;17139;52.140;11.636;2023-04-03T05:30:01;-1.50;54.60
9425;DHT22;17139;52.140;11.636;2023-04-03T05:32:30;-1.40;54.80
9425;DHT22;17139;52.140;11.636;2023-04-03T05:34:58;-1.30;54.90
9425;DHT22;17139;52.140;11.636;2023-04-03T05:37:26;-0.70;54.40
9425;DHT22;17139;52.140;11.636;2023-04-03T05:39:53;0.00;53.90
9425;DHT22;17139;52.140;11.636;2023-04-03T05:42:20;-0.10;53.30
9425;DHT22;17139;52.140;11.636;2023-04-03T05:44:47;-0.30;53.60
9425;DHT22;17139;52.140;11.636;2023-04-03T05:47:15;-0.50;53.80
9425;DHT22;17139;52.140;11.636;2023-04-03T05:49:43;-0.60;54.00
9425;DHT22;17139;52.140;11.636;2023-04-03T05:52:20;-0.70;54.10
9425;DHT22;17139;52.140;11.636;2023-04-03T05:54:48;-0.70;54.30
9425;DHT22;17139;52.140;11.636;2023-04-03T05:57:15;-0.80;54.30
9425;DHT22;17139;52.140;11.636;2023-04-03T05:59:44;-0.70;54.50
9425;DHT22;17139;52.140;11.636;2023-04-03T06:02:13;-0.80;54.40
9425;DHT22;17139;52.140;11.636;2023-04-03T06:04:41;-0.70;54.40
9425;DHT22;17139;52.140;11.636;2023-04-03T06:07:13;-0.70;54.20
9425;DHT22;17139;52.140;11.636;2023-04-03T06:09:43;-0.70;54.30
9425;DHT22;17139;52.140;11.636;2023-04-03T06:12:10;-0.20;53.90
9425;DHT22;17139;52.140;11.636;2023-04-03T06:14:38;0.40;53.10
9425;DHT22;17139;52.140;11.636;2023-04-03T06:17:05;0.10;52.60
9425;DHT22;17139;52.140;11.636;2023-04-03T06:19:34;-0.10;53.00
9425;DHT22;17139;52.140;11.636;2023-04-03T06:22:01;-0.20;53.60
9425;DHT22;17139;52.140;11.636;2023-04-03T06:24:30;-0.30;53.90
9425;DHT22;17139;52.140;11.636;2023-04-03T06:26:58;-0.40;54.00
9425;DHT22;17139;52.140;11.636;2023-04-03T06:29:25;0.10;53.80
9425;DHT22;17139;52.140;11.636;2023-04-03T06:31:52;0.00;53.20
9425;DHT22;17139;52.140;11.636;2023-04-03T06:34:20;-0.10;53.60
9425;DHT22;17139;52.140;11.636;2023-04-03T06:36:47;-0.20;53.80
9425;DHT22;17139;52.140;11.636;2023-04-03T06:39:18;-0.20;54.00
9425;DHT22;17139;52.140;11.636;2023-04-03T06:41:48;-0.20;54.10
9425;DHT22;17139;52.140;11.636;2023-04-03T06:44:15;-0.20;54.10
9425;DHT22;17139;52.140;11.636;2023-04-03T06:46:43;-0.20;54.10
9425;DHT22;17139;52.140;11.636;2023-04-03T06:49:12;-0.20;54.10
9425;DHT22;17139;52.140;11.636;2023-04-03T06:51:40;-0.10;54.10
9425;DHT22;17139;52.140;11.636;2023-04-03T06:54:08;-0.10;54.10
9425;DHT22;17139;52.140;11.636;2023-04-03T06:56:35;0.00;54.10
9425;DHT22;17139;52.140;11.636;2023-04-03T06:59:10;0.00;54.10
9425;DHT22;17139;52.140;11.636;2023-04-03T07:01:38;0.10;54.20
9425;DHT22;17139;52.140;11.636;2023-04-03T07:04:06;0.10;54.10
9425;DHT22;17139;52.140;11.636;2023-04-03T07:06:34;0.10;54.10
9425;DHT22;17139;52.140;11.636;2023-04-03T07:09:02;0.20;54.10
9425;DHT22;17139;52.140;11.636;2023-04-03T07:11:29;0.30;54.00
9425;DHT22;17139;52.140;11.636;2023-04-03T07:13:57;0.40;54.00
9425;DHT22;17139;52.140;11.636;2023-04-03T07:16:26;0.60;53.90
9425;DHT22;17139;52.140;11.636;2023-04-03T07:18:53;0.70;53.60
9425;DHT22;17139;52.140;11.636;2023-04-03T07:21:20;0.60;53.50
9425;DHT22;17139;52.140;11.636;2023-04-03T07:23:48;0.70;53.80
9425;DHT22;17139;52.140;11.636;2023-04-03T07:26:15;0.80;53.90
9425;DHT22;17139;52.140;11.636;2023-04-03T07:28:43;0.80;53.70
9425;DHT22;17139;52.140;11.636;2023-04-03T07:31:14;0.80;53.90
9425;DHT22;17139;52.140;11.636;2023-04-03T07:33:44;0.90;54.00
9425;DHT22;17139;52.140;11.636;2023-04-03T07:36:17;1.00;54.00
9425;DHT22;17139;52.140;11.636;2023-04-03T07:38:45;1.00;54.00
9425;DHT22;17139;52.140;11.636;2023-04-03T07:41:14;1.00;53.90
9425;DHT22;17139;52.140;11.636;2023-04-03T07:43:43;1.00;53.90
9425;DHT22;17139;52.140;11.636;2023-04-03T07:46:11;1.10;54.00
9425;DHT22;17139;52.140;11.636;2023-04-03T07:48:38;1.20;54.00
9425;DHT22;17139;52.140;11.636;2023-04-03T07:51:07;1.30;54.10
9425;DHT22;17139;52.140;11.636;2023-04-03T07:53:34;1.30;54.00
9425;DHT22;17139;52.140;11.636;2023-04-03T07:56:02;1.40;54.10
9425;DHT22;17139;52.140;11.636;2023-04-03T07:58:29;1.40;54.10
9425;DHT22;17139;52.140;11.636;2023-04-03T08:00:57;1.40;54.10
9425;DHT22;17139;52.140;11.636;2023-04-03T08:03:24;1.40;54.00
9425;DHT22;17139;52.140;11.636;2023-04-03T08:05:52;1.90;53.80
9425;DHT22;17139;52.140;11.636;2023-04-03T08:08:22;2.40;52.80
9425;DHT22;17139;52.140;11.636;2023-04-03T08:10:51;2.30;52.70
9425;DHT22;17139;52.140;11.636;2023-04-03T08:13:18;2.30;53.20
9425;DHT22;17139;52.140;11.636;2023-04-03T08:15:46;2.30;53.40
9425;DHT22;17139;52.140;11.636;2023-04-03T08:18:14;2.30;53.40
9425;DHT22;17139;52.140;11.636;2023-04-03T08:20:42;2.40;54.10
9425;DHT22;17139;52.140;11.636;2023-04-03T08:23:10;2.50;53.50
9425;DHT22;17139;52.140;11.636;2023-04-03T08:25:39;2.60;53.40
9425;DHT22;17139;52.140;11.636;2023-04-03T08:28:07;2.70;53.40
9425;DHT22;17139;52.140;11.636;2023-04-03T08:30:35;2.80;53.30
9425;DHT22;17139;52.140;11.636;2023-04-03T08:33:04;2.90;53.40
9425;DHT22;17139;52.140;11.636;2023-04-03T08:35:31;3.00;53.30
9425;DHT22;17139;52.140;11.636;2023-04-03T08:37:59;2.90;52.80
9425;DHT22;17139;52.140;11.636;2023-04-03T08:40:26;2.90;52.50
9425;DHT22;17139;52.140;11.636;2023-04-03T08:43:22;2.90;52.70
9425;DHT22;17139;52.140;11.636;2023-04-03T08:45:55;2.70;53.00
9425;DHT22;17139;52.140;11.636;2023-04-03T08:48:29;2.60;53.10
9425;DHT22;17139;52.140;11.636;2023-04-03T08:51:00;3.20;52.00
9425;DHT22;17139;52.140;11.636;2023-04-03T08:53:33;3.10;52.10
9425;DHT22;17139;52.140;11.636;2023-04-03T08:56:07;2.90;52.30
9425;DHT22;17139;52.140;11.636;2023-04-03T08:58:42;2.90;52.30
9425;DHT22;17139;52.140;11.636;2023-04-03T09:01:18;2.90;52.70
9425;DHT22;17139;52.140;11.636;2023-04-03T09:03:45;2.90;52.70
9425;DHT22;17139;52.140;11.636;2023-04-03T09:06:14;3.10;52.90
9425;DHT22;17139;52.140;11.636;2023-04-03T09:08:45;3.30;52.70
9425;DHT22;17139;52.140;11.636;2023-04-03T09:11:19;3.50;52.50
9425;DHT22;17139;52.140;11.636;2023-04-03T09:13:54;3.70;52.60
9425;DHT22;17139;52.140;11.636;2023-04-03T09:16:36;3.80;52.40
9425;DHT22;17139;52.140;11.636;2023-04-03T09:19:14;4.10;52.30
9425;DHT22;17139;52.140;11.636;2023-04-03T09:21:42;4.10;52.00
9425;DHT22;17139;52.140;11.636;2023-04-03T09:24:14;4.10;51.80
9425;DHT22;17139;52.140;11.636;2023-04-03T09:26:44;4.10;52.00
9425;DHT22;17139;52.140;11.636;2023-04-03T09:29:18;4.20;52.10
9425;DHT22;17139;52.140;11.636;2023-04-03T09:31:48;4.20;52.10
9425;DHT22;17139;52.140;11.636;2023-04-03T09:34:20;4.20;52.10
9425;DHT22;17139;52.140;11.636;2023-04-03T09:36:50;4.70;50.70
9425;DHT22;17139;52.140;11.636;2023-04-03T09:39:20;4.50;51.00
9425;DHT22;17139;52.140;11.636;2023-04-03T09:41:59;4.40;51.80
9425;DHT22;17139;52.140;11.636;2023-04-03T09:44:30;4.50;51.80
9425;DHT22;17139;52.140;11.636;2023-04-03T09:46:58;4.50;51.70
9425;DHT22;17139;52.140;11.636;2023-04-03T09:49:26;4.50;51.70
9425;DHT22;17139;52.140;11.636;2023-04-03T09:51:53;4.60;51.70
9425;DHT22;17139;52.140;11.636;2023-04-03T09:54:30;4.60;51.50
9425;DHT22;17139;52.140;11.636;2023-04-03T09:57:00;4.50;51.10
9425;DHT22;17139;52.140;11.636;2023-04-03T09:59:31;4.30;51.20
9425;DHT22;17139;52.140;11.636;2023-04-03T10:02:00;4.10;51.30
9425;DHT22;17139;52.140;11.636;2023-04-03T10:04:38;4.10;51.80
9425;DHT22;17139;52.140;11.636;2023-04-03T10:07:28;4.60;50.40
9425;DHT22;17139;52.140;11.636;2023-04-03T10:09:56;4.50;51.10
9425;DHT22;17139;52.140;11.636;2023-04-03T10:12:24;4.30;51.50
9425;DHT22;17139;52.140;11.636;2023-04-03T10:14:59;4.30;51.60
9425;DHT22;17139;52.140;11.636;2023-04-03T10:17:37;4.30;51.70
9425;DHT22;17139;52.140;11.636;2023-04-03T10:20:19;4.40;51.60
9425;DHT22;17139;52.140;11.636;2023-04-03T10:22:59;4.50;51.40
9425;DHT22;17139;52.140;11.636;2023-04-03T10:25:33;4.70;51.50
9425;DHT22;17139;52.140;11.636;2023-04-03T10:28:07;4.70;51.30
9425;DHT22;17139;52.140;11.636;2023-04-03T10:30:43;4.70;51.20
9425;DHT22;17139;52.140;11.636;2023-04-03T10:33:32;4.70;51.20
9425;DHT22;17139;52.140;11.636;2023-04-03T10:36:12;4.60;51.20
9425;DHT22;17139;52.140;11.636;2023-04-03T10:38:51;4.40;50.90
9425;DHT22;17139;52.140;11.636;2023-04-03T10:41:26;4.20;51.10
9425;DHT22;17139;52.140;11.636;2023-04-03T10:44:09;4.20;51.50
9425;DHT22;17139;52.140;11.636;2023-04-03T10:46:43;4.40;50.90
9425;DHT22;17139;52.140;11.636;2023-04-03T10:49:31;4.70;50.40
9425;DHT22;17139;52.140;11.636;2023-04-03T10:52:06;4.60;50.30
9425;DHT22;17139;52.140;11.636;2023-04-03T10:54:42;4.40;50.70
9425;DHT22;17139;52.140;11.636;2023-04-03T10:57:12;4.30;50.90
9425;DHT22;17139;52.140;11.636;2023-04-03T10:59:43;4.20;51.00
9425;DHT22;17139;52.140;11.636;2023-04-03T11:02:17;4.30;51.30
9425;DHT22;17139;52.140;11.636;2023-04-03T11:04:51;4.40;51.20
9425;DHT22;17139;52.140;11.636;2023-04-03T11:07:21;4.40;51.10
9425;DHT22;17139;52.140;11.636;2023-04-03T11:09:53;4.40;51.00
9425;DHT22;17139;52.140;11.636;2023-04-03T11:12:33;4.60;51.20
9425;DHT22;17139;52.140;11.636;2023-04-03T11:15:04;4.80;51.10
9425;DHT22;17139;52.140;11.636;2023-04-03T11:17:37;5.00;51.50
9425;DHT22;17139;52.140;11.636;2023-04-03T11:20:13;5.20;50.70
9425;DHT22;17139;52.140;11.636;2023-04-03T11:22:43;5.20;50.60
9425;DHT22;17139;52.140;11.636;2023-04-03T11:25:18;5.40;49.50
9425;DHT22;17139;52.140;11.636;2023-04-03T11:27:50;5.40;50.30
9425;DHT22;17139;52.140;11.636;2023-04-03T11:30:22;5.30;50.40
9425;DHT22;17139;52.140;11.636;2023-04-03T11:33:18;5.30;50.80
9425;DHT22;17139;52.140;11.636;2023-04-03T11:35:51;5.30;50.10
9425;DHT22;17139;52.140;11.636;2023-04-03T11:38:24;5.10;50.00
9425;DHT22;17139;52.140;11.636;2023-04-03T11:40:55;5.10;50.10
9425;DHT22;17139;52.140;11.636;2023-04-03T11:43:25;4.90;49.60
9425;DHT22;17139;52.140;11.636;2023-04-03T11:45:56;4.80;50.10
9425;DHT22;17139;52.140;11.636;2023-04-03T11:48:48;4.70;50.30
9425;DHT22;17139;52.140;11.636;2023-04-03T11:51:44;4.70;50.70
9425;DHT22;17139;52.140;11.636;2023-04-03T11:54:43;4.70;50.40
9425;DHT22;17139;52.140;11.636;2023-04-03T11:58:12;4.60;50.70
9425;DHT22;17139;52.140;11.636;2023-04-03T12:00:56;5.30;48.20
9425;DHT22;17139;52.140;11.636;2023-04-03T12:07:00;5.00;50.30
9425;DHT22;17139;52.140;11.636;2023-04-03T12:12:35;5.40;50.60
9425;DHT22;17139;52.140;11.636;2023-04-03T12:18:57;5.60;49.50
9425;DHT22;17139;52.140;11.636;2023-04-03T12:24:28;5.30;49.90
9425;DHT22;17139;52.140;11.636;2023-04-03T12:29:50;5.40;49.70
9425;DHT22;17139;52.140;11.636;2023-04-03T12:32:29;5.40;49.60
9425;DHT22;17139;52.140;11.636;2023-04-03T12:35:20;5.50;49.30
9425;DHT22;17139;52.140;11.636;2023-04-03T12:40:55;5.30;49.50
9425;DHT22;17139;52.140;11.636;2023-04-03T12:43:37;5.20;49.50
9425;DHT22;17139;52.140;11.636;2023-04-03T12:46:13;5.20;49.60
9425;DHT22;17139;52.140;11.636;2023-04-03T12:48:52;5.10;49.50
9425;DHT22;17139;52.140;11.636;2023-04-03T12:51:24;5.20;50.00
9425;DHT22;17139;52.140;11.636;2023-04-03T12:53:58;5.30;49.90
9425;DHT22;17139;52.140;11.636;2023-04-03T12:56:29;5.80;48.40
9425;DHT22;17139;52.140;11.636;2023-04-03T12:59:15;6.10;49.20
9425;DHT22;17139;52.140;11.636;2023-04-03T13:01:43;6.30;49.30
9425;DHT22;17139;52.140;11.636;2023-04-03T13:04:11;6.40;48.60
9425;DHT22;17139;52.140;11.636;2023-04-03T13:06:40;6.40;48.00
9425;DHT22;17139;52.140;11.636;2023-04-03T13:09:19;6.10;48.60
9425;DHT22;17139;52.140;11.636;2023-04-03T13:11:51;5.80;48.60
9425;DHT22;17139;52.140;11.636;2023-04-03T13:14:20;5.60;48.90
9425;DHT22;17139;52.140;11.636;2023-04-03T13:16:54;5.70;49.80
9425;DHT22;17139;52.140;11.636;2023-04-03T13:19:23;5.80;49.70
9425;DHT22;17139;52.140;11.636;2023-04-03T13:21:57;5.90;49.50
9425;DHT22;17139;52.140;11.636;2023-04-03T13:24:25;5.90;49.40
9425;DHT22;17139;52.140;11.636;2023-04-03T13:26:54;5.80;49.10
9425;DHT22;17139;52.140;11.636;2023-04-03T13:29:24;5.60;49.00
9425;DHT22;17139;52.140;11.636;2023-04-03T13:31:53;5.60;48.80
9425;DHT22;17139;52.140;11.636;2023-04-03T13:34:23;5.60;49.60
9425;DHT22;17139;52.140;11.636;2023-04-03T13:36:57;5.60;49.30
9425;DHT22;17139;52.140;11.636;2023-04-03T13:39:26;5.70;49.20
9425;DHT22;17139;52.140;11.636;2023-04-03T13:41:57;5.70;49.30
9425;DHT22;17139;52.140;11.636;2023-04-03T13:44:31;5.80;49.50
9425;DHT22;17139;52.140;11.636;2023-04-03T13:47:01;5.90;49.00
9425;DHT22;17139;52.140;11.636;2023-04-03T13:49:43;5.90;49.00
9425;DHT22;17139;52.140;11.636;2023-04-03T13:52:25;5.90;49.00
9425;DHT22;17139;52.140;11.636;2023-04-03T13:54:55;5.90;48.90
9425;DHT22;17139;52.140;11.636;2023-04-03T13:57:24;5.90;49.00
9425;DHT22;17139;52.140;11.636;2023-04-03T13:59:52;5.80;48.60
9425;DHT22;17139;52.140;11.636;2023-04-03T14:02:22;5.60;48.70
9425;DHT22;17139;52.140;11.636;2023-04-03T14:04:53;5.50;48.80
9425;DHT22;17139;52.140;11.636;2023-04-03T14:07:24;5.80;48.00
9425;DHT22;17139;52.140;11.636;2023-04-03T14:09:52;5.90;48.60
9425;DHT22;17139;52.140;11.636;2023-04-03T14:12:27;5.90;48.30
9425;DHT22;17139;52.140;11.636;2023-04-03T14:14:55;5.90;48.60
9425;DHT22;17139;52.140;11.636;2023-04-03T14:17:24;6.00;47.30
9425;DHT22;17139;52.140;11.636;2023-04-03T14:19:54;6.00;47.80
9425;DHT22;17139;52.140;11.636;2023-04-03T14:22:25;5.90;48.10
9425;DHT22;17139;52.140;11.636;2023-04-03T14:24:54;5.80;48.60
9425;DHT22;17139;52.140;11.636;2023-04-03T14:27:24;5.90;49.00
9425;DHT22;17139;52.140;11.636;2023-04-03T14:29:54;6.00;49.10
9425;DHT22;17139;52.140;11.636;2023-04-03T14:32:24;6.20;49.20
9425;DHT22;17139;52.140;11.636;2023-04-03T14:34:52;6.40;48.20
9425;DHT22;17139;52.140;11.636;2023-04-03T14:37:21;6.50;48.10
9425;DHT22;17139;52.140;11.636;2023-04-03T14:39:49;6.30;48.30
9425;DHT22;17139;52.140;11.636;2023-04-03T14:42:21;6.10;48.30
9425;DHT22;17139;52.140;11.636;2023-04-03T14:44:48;5.90;48.50
9425;DHT22;17139;52.140;11.636;2023-04-03T14:47:20;5.80;48.90
9425;DHT22;17139;52.140;11.636;2023-04-03T14:49:48;5.70;48.90
9425;DHT22;17139;52.140;11.636;2023-04-03T14:52:19;5.70;49.00
9425;DHT22;17139;52.140;11.636;2023-04-03T14:54:46;5.70;49.00
9425;DHT22;17139;52.140;11.636;2023-04-03T14:57:15;5.80;49.00
9425;DHT22;17139;52.140;11.636;2023-04-03T14:59:43;5.80;48.90
9425;DHT22;17139;52.140;11.636;2023-04-03T15:02:26;5.70;48.90
9425;DHT22;17139;52.140;11.636;2023-04-03T15:04:55;5.60;48.80
9425;DHT22;17139;52.140;11.636;2023-04-03T15:07:25;5.50;48.80
9425;DHT22;17139;52.140;11.636;2023-04-03T15:09:52;5.60;48.80
9425;DHT22;17139;52.140;11.636;2023-04-03T15:12:22;5.70;48.90
9425;DHT22;17139;52.140;11.636;2023-04-03T15:14:49;5.70;49.20
9425;DHT22;17139;52.140;11.636;2023-04-03T15:17:21;5.70;48.70
9425;DHT22;17139;52.140;11.636;2023-04-03T15:19:49;5.80;48.90
9425;DHT22;17139;52.140;11.636;2023-04-03T15:22:19;5.80;48.40
9425;DHT22;17139;52.140;11.636;2023-04-03T15:24:46;5.70;48.30
9425;DHT22;17139;52.140;11.636;2023-04-03T15:27:14;5.70;48.80
9425;DHT22;17139;52.140;11.636;2023-04-03T15:29:43;5.70;48.90
9425;DHT22;17139;52.140;11.636;2023-04-03T15:32:11;5.60;48.80
9425;DHT22;17139;52.140;11.636;2023-04-03T15:34:40;5.90;47.30
9425;DHT22;17139;52.140;11.636;2023-04-03T15:37:07;6.50;44.10
9425;DHT22;17139;52.140;11.636;2023-04-03T15:39:34;6.30;46.70
9425;DHT22;17139;52.140;11.636;2023-04-03T15:42:01;6.00;47.50
9425;DHT22;17139;52.140;11.636;2023-04-03T15:44:32;6.30;46.40
9425;DHT22;17139;52.140;11.636;2023-04-03T15:47:01;6.20;47.30
9425;DHT22;17139;52.140;11.636;2023-04-03T15:49:28;6.10;48.70
9425;DHT22;17139;52.140;11.636;2023-04-03T15:51:57;6.10;48.40
9425;DHT22;17139;52.140;11.636;2023-04-03T15:54:24;6.10;48.20
9425;DHT22;17139;52.140;11.636;2023-04-03T15:56:52;5.90;48.40
9425;DHT22;17139;52.140;11.636;2023-04-03T15:59:19;5.90;48.60
9425;DHT22;17139;52.140;11.636;2023-04-03T16:01:47;5.70;48.60
9425;DHT22;17139;52.140;11.636;2023-04-03T16:04:15;5.60;48.60
9425;DHT22;17139;52.140;11.636;2023-04-03T16:06:43;5.50;48.40
9425;DHT22;17139;52.140;11.636;2023-04-03T16:09:12;5.40;48.60
9425;DHT22;17139;52.140;11.636;2023-04-03T16:11:39;5.30;48.60
9425;DHT22;17139;52.140;11.636;2023-04-03T16:14:07;5.30;48.60
9425;DHT22;17139;52.140;11.636;2023-04-03T16:16:35;5.90;46.50
9425;DHT22;17139;52.140;11.636;2023-04-03T16:19:02;6.40;44.10